createdAt,value
2022-07-30T00:00:25.002Z,74.18
2022-07-30T00:02:52.605Z,75.20
2022-07-30T00:05:19.452Z,74.50
2022-07-30T00:07:46.276Z,74.53
2022-07-30T00:10:13.312Z,74.05
2022-07-30T00:12:40.222Z,73.69
2022-07-30T00:15:08.208Z,73.77
2022-07-30T00:17:35.115Z,74.02
2022-07-30T00:20:02.963Z,74.64
2022-07-30T00:22:31.685Z,74.61
2022-07-30T00:24:58.954Z,74.43
2022-07-30T00:27:26.390Z,74.63
2022-07-30T00:29:53.234Z,73.86
2022-07-30T00:32:20.076Z,73.87
2022-07-30T00:34:47.030Z,74.31
2022-07-30T00:37:13.857Z,74.35
2022-07-30T00:39:40.734Z,74.27
2022-07-30T00:42:07.597Z,74.33
2022-07-30T00:44:34.493Z,75.07
2022-07-30T00:47:01.971Z,74.84
2022-07-30T00:49:29.098Z,75.31
2022-07-30T00:51:56.226Z,74.74
2022-07-30T00:54:23.178Z,75.29
2022-07-30T00:56:50.613Z,75.22
2022-07-30T00:59:17.466Z,74.76
2022-07-30T01:01:44.525Z,75.00
2022-07-30T01:04:11.844Z,74.66
2022-07-30T01:06:40.242Z,74.21
2022-07-30T01:09:08.200Z,75.92
2022-07-30T01:11:40.357Z,75.08
2022-07-30T01:14:09.541Z,74.92
2022-07-30T01:16:38.770Z,74.99
2022-07-30T01:19:32.790Z,74.84
2022-07-30T01:22:24.703Z,74.32
2022-07-30T01:25:12.053Z,74.56
2022-07-30T01:27:51.218Z,74.79
2022-07-30T01:30:22.992Z,74.84
2022-07-30T01:32:51.469Z,74.65
2022-07-30T01:35:20.780Z,74.45
2022-07-30T01:37:49.500Z,74.37
2022-07-30T01:40:16.737Z,74.42
2022-07-30T01:42:44.956Z,74.18
2022-07-30T01:45:13.882Z,74.22
2022-07-30T01:47:42.652Z,74.32
2022-07-30T01:50:15.852Z,74.15
2022-07-30T01:52:45.861Z,74.15
2022-07-30T01:55:20.725Z,74.31
2022-07-30T01:57:49.250Z,74.06
2022-07-30T02:00:17.463Z,74.10
2022-07-30T02:02:45.811Z,74.42
2022-07-30T02:05:12.958Z,74.74
2022-07-30T02:08:11.922Z,74.91
2022-07-30T02:10:50.140Z,74.74
2022-07-30T02:13:23.398Z,75.65
2022-07-30T02:16:05.730Z,75.48
2022-07-30T02:19:04.370Z,75.58
2022-07-30T02:21:39.085Z,75.35
2022-07-30T02:24:13.768Z,75.58
2022-07-30T02:26:43.312Z,75.71
2022-07-30T02:29:11.789Z,75.25
2022-07-30T02:31:40.803Z,75.31
2022-07-30T02:34:09.937Z,75.13
2022-07-30T02:36:39.301Z,74.83
2022-07-30T02:39:06.582Z,74.42
2022-07-30T02:41:36.534Z,74.56
2022-07-30T02:44:04.564Z,74.71
2022-07-30T02:46:32.582Z,74.78
2022-07-30T02:49:00.085Z,74.85
2022-07-30T02:51:28.067Z,75.00
2022-07-30T02:53:56.747Z,75.12
2022-07-30T02:56:24.697Z,74.69
2022-07-30T02:58:53.273Z,74.29
2022-07-30T03:01:23.206Z,74.42
2022-07-30T03:03:51.606Z,74.08
2022-07-30T03:06:19.943Z,74.01
2022-07-30T03:08:47.368Z,73.56
2022-07-30T03:11:18.438Z,73.80
2022-07-30T03:13:45.409Z,73.14
2022-07-30T03:16:13.874Z,73.38
2022-07-30T03:18:43.012Z,73.54
2022-07-30T03:21:11.968Z,73.43
2022-07-30T03:23:40.586Z,73.38
2022-07-30T03:26:09.330Z,73.29
2022-07-30T03:28:40.221Z,74.15
2022-07-30T03:31:10.354Z,73.55
2022-07-30T03:33:39.892Z,73.66
2022-07-30T03:36:08.693Z,73.84
2022-07-30T03:38:41.373Z,73.73
2022-07-30T03:41:08.834Z,73.72
2022-07-30T03:43:36.233Z,73.69
2022-07-30T03:46:09.988Z,73.45
2022-07-30T03:48:38.511Z,73.29
2022-07-30T03:51:10.157Z,73.40
2022-07-30T03:53:37.834Z,73.08
2022-07-30T03:56:04.989Z,72.99
2022-07-30T03:58:35.899Z,73.39
2022-07-30T04:01:03.378Z,73.42
2022-07-30T04:03:34.630Z,73.33
2022-07-30T04:06:01.765Z,73.49
2022-07-30T04:08:29.067Z,73.11
2022-07-30T04:10:55.962Z,73.67
2022-07-30T04:13:22.796Z,73.26
2022-07-30T04:16:40.051Z,74.01
2022-07-30T04:19:12.964Z,73.73
2022-07-30T04:21:41.622Z,72.98
2022-07-30T04:24:10.721Z,72.89
2022-07-30T04:26:38.521Z,73.17
2022-07-30T04:29:14.353Z,74.16
2022-07-30T04:31:46.083Z,73.52
2022-07-30T04:34:15.153Z,73.22
2022-07-30T04:36:43.614Z,72.92
2022-07-30T04:39:11.364Z,72.88
2022-07-30T04:41:49.411Z,72.86
2022-07-30T04:44:19.334Z,73.00
2022-07-30T04:46:47.582Z,72.86
2022-07-30T04:49:18.014Z,72.77
2022-07-30T04:51:46.801Z,72.75
2022-07-30T04:54:16.043Z,72.50
2022-07-30T04:57:01.076Z,71.78
2022-07-30T04:59:28.109Z,71.10
2022-07-30T05:01:57.865Z,71.00
2022-07-30T05:04:26.548Z,70.56
2022-07-30T05:06:54.823Z,70.64
2022-07-30T05:09:22.697Z,70.17
2022-07-30T05:11:54.441Z,69.56
2022-07-30T05:14:23.017Z,69.69
2022-07-30T05:16:51.141Z,68.96
2022-07-30T05:19:20.117Z,67.96
2022-07-30T05:21:47.393Z,68.64
2022-07-30T05:24:15.007Z,69.04
2022-07-30T05:26:41.948Z,68.74
2022-07-30T05:29:08.902Z,68.76
2022-07-30T05:31:35.935Z,68.33
2022-07-30T05:34:05.389Z,66.62
2022-07-30T05:36:32.492Z,67.10
2022-07-30T05:39:00.269Z,67.04
2022-07-30T05:41:32.037Z,67.01
2022-07-30T05:44:01.034Z,65.66
2022-07-30T05:46:28.962Z,66.03
2022-07-30T05:48:55.908Z,66.19
2022-07-30T05:51:22.892Z,66.73
2022-07-30T05:53:50.214Z,66.18
2022-07-30T05:56:17.370Z,65.52
2022-07-30T05:58:44.351Z,64.41
2022-07-30T06:01:11.988Z,64.68
2022-07-30T06:03:39.151Z,64.50
2022-07-30T06:06:07.994Z,64.44
2022-07-30T06:08:35.472Z,64.42
2022-07-30T06:11:03.088Z,64.06
2022-07-30T06:13:30.056Z,63.18
2022-07-30T06:15:57.066Z,63.67
2022-07-30T06:18:24.028Z,62.59
2022-07-30T06:20:54.768Z,63.02
2022-07-30T06:23:22.052Z,62.76
2022-07-30T06:25:49.765Z,62.75
2022-07-30T06:28:37.025Z,62.88
2022-07-30T06:31:05.648Z,63.16
2022-07-30T06:33:32.674Z,62.97
2022-07-30T06:35:59.541Z,61.47
2022-07-30T06:38:26.448Z,61.77
2022-07-30T06:40:53.410Z,60.08
2022-07-30T06:43:21.201Z,58.82
2022-07-30T06:45:48.131Z,57.75
2022-07-30T06:48:15.152Z,57.75
2022-07-30T06:50:42.117Z,57.92
2022-07-30T06:53:09.019Z,56.61
2022-07-30T06:55:35.924Z,55.69
2022-07-30T06:58:02.840Z,55.91
2022-07-30T07:00:29.895Z,55.88
2022-07-30T07:02:56.766Z,54.07
2022-07-30T07:05:23.681Z,52.91
2022-07-30T07:07:58.724Z,52.36
2022-07-30T07:10:27.305Z,54.66
2022-07-30T07:12:55.067Z,53.20
2022-07-30T07:15:36.187Z,52.99
2022-07-30T07:18:06.437Z,52.56
2022-07-30T07:20:35.050Z,53.30
2022-07-30T07:23:06.627Z,51.50
2022-07-30T07:25:36.525Z,51.96
2022-07-30T07:28:12.817Z,50.50
2022-07-30T07:30:42.032Z,50.70
2022-07-30T07:33:09.517Z,50.39
2022-07-30T07:35:41.186Z,48.78
2022-07-30T07:38:18.409Z,49.75
2022-07-30T07:40:45.963Z,48.14
2022-07-30T07:43:13.431Z,48.00
2022-07-30T07:45:42.180Z,48.29
2022-07-30T07:48:09.461Z,49.35
2022-07-30T07:50:36.343Z,47.80
2022-07-30T07:53:03.617Z,47.71
2022-07-30T07:55:31.035Z,48.09
2022-07-30T07:57:59.911Z,47.51
2022-07-30T08:00:27.000Z,47.17
2022-07-30T08:02:54.752Z,46.46
2022-07-30T08:05:21.711Z,45.56
2022-07-30T08:07:48.634Z,46.55
2022-07-30T08:10:16.172Z,46.01
2022-07-30T08:12:43.550Z,45.51
2022-07-30T08:15:10.836Z,46.55
2022-07-30T08:17:46.290Z,44.20
2022-07-30T08:20:15.732Z,45.88
2022-07-30T08:22:42.924Z,44.50
2022-07-30T08:25:10.172Z,44.33
2022-07-30T08:27:37.007Z,43.79
2022-07-30T08:30:09.224Z,43.75
2022-07-30T08:32:36.759Z,44.46
2022-07-30T08:35:05.236Z,44.01
2022-07-30T08:37:32.112Z,44.46
2022-07-30T08:39:59.118Z,43.88
2022-07-30T08:42:27.686Z,45.46
2022-07-30T08:44:55.398Z,44.66
2022-07-30T08:47:33.288Z,43.77
2022-07-30T08:50:04.537Z,44.38
2022-07-30T08:52:33.231Z,44.40
2022-07-30T08:55:01.019Z,44.79
2022-07-30T08:57:34.185Z,43.71
2022-07-30T09:00:02.339Z,44.73
2022-07-30T09:02:31.873Z,44.68
2022-07-30T09:04:59.347Z,44.70
2022-07-30T09:07:26.559Z,45.70
2022-07-30T09:09:53.391Z,46.11
2022-07-30T09:12:39.876Z,46.41
2022-07-30T09:15:15.565Z,45.40
2022-07-30T09:18:00.757Z,46.06
2022-07-30T09:20:36.188Z,42.83
2022-07-30T09:23:06.293Z,42.40
2022-07-30T09:25:44.137Z,41.58
2022-07-30T09:28:16.080Z,43.07
2022-07-30T09:30:54.043Z,42.39
2022-07-30T09:33:38.999Z,41.84
2022-07-30T09:36:12.552Z,41.30
2022-07-30T09:38:53.060Z,42.42
2022-07-30T09:41:39.369Z,41.51
2022-07-30T09:44:07.541Z,41.06
2022-07-30T09:46:50.947Z,41.93
2022-07-30T09:49:26.561Z,41.08
2022-07-30T09:52:06.804Z,41.21
2022-07-30T09:54:51.384Z,39.79
2022-07-30T09:57:26.254Z,38.94
2022-07-30T09:59:56.847Z,38.42
2022-07-30T10:02:33.990Z,37.50
2022-07-30T10:05:16.512Z,38.10
2022-07-30T10:07:59.063Z,37.99
2022-07-30T10:10:31.295Z,36.66
2022-07-30T10:13:04.613Z,38.47
2022-07-30T10:15:34.999Z,37.07
2022-07-30T10:18:06.379Z,37.74
2022-07-30T10:20:35.170Z,37.99
2022-07-30T10:23:07.975Z,37.56
2022-07-30T10:25:37.016Z,35.36
2022-07-30T10:28:17.949Z,35.75
2022-07-30T10:30:45.349Z,35.37
2022-07-30T10:33:34.912Z,35.03
2022-07-30T10:35:59.833Z,33.92
2022-07-30T10:38:34.450Z,33.82
2022-07-30T10:41:42.556Z,34.12
2022-07-30T10:44:22.817Z,33.55
2022-07-30T10:47:10.539Z,33.10
2022-07-30T10:49:41.305Z,33.71
2022-07-30T10:52:09.398Z,33.68
2022-07-30T10:54:47.632Z,33.11
2022-07-30T10:57:22.945Z,34.26
2022-07-30T11:00:04.118Z,33.47
2022-07-30T11:02:35.255Z,34.47
2022-07-30T11:05:18.380Z,35.29
2022-07-30T11:07:48.688Z,35.91
2022-07-30T11:10:39.476Z,35.97
2022-07-30T11:13:09.665Z,37.04
2022-07-30T11:15:57.234Z,39.01
2022-07-30T11:18:26.664Z,43.46
2022-07-30T11:21:21.411Z,46.73
2022-07-30T11:23:49.613Z,50.04
2022-07-30T11:26:41.711Z,53.38
2022-07-30T11:29:50.593Z,58.93
2022-07-30T11:32:32.009Z,57.25
2022-07-30T11:35:34.723Z,57.76
2022-07-30T11:38:09.406Z,61.37
2022-07-30T11:40:37.155Z,61.75
2022-07-30T11:43:34.931Z,62.25
2022-07-30T11:46:28.835Z,62.80
2022-07-30T11:49:01.355Z,65.96
2022-07-30T11:51:29.550Z,64.24
2022-07-30T11:54:05.019Z,61.43
2022-07-30T11:56:32.239Z,59.76
2022-07-30T11:59:07.737Z,59.55
2022-07-30T12:01:35.749Z,56.11
2022-07-30T12:04:07.087Z,56.21
2022-07-30T12:06:36.409Z,52.19
2022-07-30T12:09:03.511Z,54.62
2022-07-30T12:11:35.290Z,52.20
2022-07-30T12:14:03.479Z,44.65
2022-07-30T12:16:31.993Z,45.54
2022-07-30T12:19:06.470Z,44.81
2022-07-30T12:21:34.090Z,47.70
2022-07-30T12:24:09.875Z,46.96
2022-07-30T12:26:36.748Z,44.08
2022-07-30T12:29:13.922Z,43.05
2022-07-30T12:31:41.854Z,41.20
2022-07-30T12:34:27.181Z,41.80
2022-07-30T12:36:54.953Z,41.60
2022-07-30T12:39:26.962Z,40.83
2022-07-30T12:41:58.436Z,42.76
2022-07-30T12:44:44.901Z,42.72
2022-07-30T12:47:38.617Z,43.38
2022-07-30T12:50:17.920Z,43.75
2022-07-30T12:52:51.639Z,44.83
2022-07-30T12:55:29.112Z,45.45
2022-07-30T12:58:09.197Z,45.50
2022-07-30T13:00:51.051Z,38.49
2022-07-30T13:03:27.743Z,39.56
2022-07-30T13:05:56.939Z,38.69
2022-07-30T13:08:55.691Z,38.83
2022-07-30T13:11:26.223Z,38.00
2022-07-30T13:13:53.969Z,36.52
2022-07-30T13:16:21.858Z,34.64
2022-07-30T13:18:48.925Z,32.20
2022-07-30T13:21:16.544Z,34.24
2022-07-30T13:23:43.433Z,32.33
2022-07-30T13:26:11.113Z,32.96
2022-07-30T13:28:38.544Z,33.83
2022-07-30T13:31:07.468Z,33.24
2022-07-30T13:33:35.988Z,32.42
2022-07-30T13:36:03.199Z,30.57
2022-07-30T13:38:30.177Z,32.88
2022-07-30T13:41:02.212Z,30.50
2022-07-30T13:43:29.641Z,32.09
2022-07-30T13:46:00.988Z,28.95
2022-07-30T13:48:27.822Z,29.59
2022-07-30T13:50:54.771Z,31.12
2022-07-30T13:53:21.864Z,30.22
2022-07-30T13:55:48.959Z,31.67
2022-07-30T13:58:15.804Z,32.51
2022-07-30T14:00:45.074Z,33.59
2022-07-30T14:03:12.472Z,33.68
2022-07-30T14:05:42.122Z,34.57
2022-07-30T14:08:11.063Z,32.62
2022-07-30T14:10:39.725Z,33.16
2022-07-30T14:13:09.572Z,31.78
2022-07-30T14:15:36.869Z,32.39
2022-07-30T14:18:05.894Z,31.67
2022-07-30T14:20:32.812Z,31.69
2022-07-30T14:22:59.810Z,31.42
2022-07-30T14:25:26.856Z,31.71
2022-07-30T14:27:53.860Z,31.77
2022-07-30T14:30:21.245Z,31.77
2022-07-30T14:32:48.240Z,29.17
2022-07-30T14:35:15.127Z,28.92
2022-07-30T14:37:42.360Z,28.33
2022-07-30T14:40:12.170Z,28.33
2022-07-30T14:42:41.749Z,29.04
2022-07-30T14:45:10.232Z,28.41
2022-07-30T14:47:37.270Z,29.46
2022-07-30T14:50:04.845Z,28.42
2022-07-30T14:52:34.908Z,27.45
2022-07-30T14:55:03.726Z,28.25
2022-07-30T14:57:30.939Z,27.47
2022-07-30T14:59:57.786Z,27.74
2022-07-30T15:02:24.733Z,28.47
2022-07-30T15:04:51.768Z,27.64
2022-07-30T15:07:19.070Z,26.27
2022-07-30T15:09:46.000Z,27.09
2022-07-30T15:12:23.444Z,27.48
2022-07-30T15:14:53.925Z,29.30
2022-07-30T15:17:20.925Z,31.03
2022-07-30T15:19:50.266Z,31.44
2022-07-30T15:22:19.588Z,32.45
2022-07-30T15:24:46.695Z,32.09
2022-07-30T15:27:13.640Z,32.38
2022-07-30T15:29:40.850Z,31.72
2022-07-30T15:32:07.863Z,30.29
2022-07-30T15:34:34.937Z,30.75
2022-07-30T15:37:02.982Z,31.42
2022-07-30T15:39:32.290Z,32.00
2022-07-30T15:42:01.099Z,32.30
2022-07-30T15:44:28.340Z,32.00
2022-07-30T15:46:55.377Z,32.25
2022-07-30T15:49:22.486Z,34.34
2022-07-30T15:51:50.404Z,33.32
2022-07-30T15:54:22.865Z,36.10
2022-07-30T15:56:51.509Z,34.13
2022-07-30T15:59:18.685Z,36.47
2022-07-30T16:01:45.745Z,35.65
2022-07-30T16:04:18.943Z,36.31
2022-07-30T16:06:48.513Z,34.28
2022-07-30T16:09:16.480Z,34.84
2022-07-30T16:11:43.592Z,36.20
2022-07-30T16:14:10.973Z,36.61
2022-07-30T16:16:38.161Z,36.03
2022-07-30T16:19:05.056Z,35.61
2022-07-30T16:21:31.909Z,35.52
2022-07-30T16:23:58.956Z,35.25
2022-07-30T16:26:25.962Z,34.01
2022-07-30T16:28:52.891Z,35.23
2022-07-30T16:31:19.901Z,34.43
2022-07-30T16:33:47.264Z,35.42
2022-07-30T16:36:14.344Z,35.33
2022-07-30T16:38:41.329Z,34.70
2022-07-30T16:41:13.457Z,34.12
2022-07-30T16:43:41.036Z,34.01
2022-07-30T16:46:08.262Z,35.09
2022-07-30T16:48:35.107Z,35.24
2022-07-30T16:51:02.189Z,35.74
2022-07-30T16:53:29.376Z,36.78
2022-07-30T16:55:58.901Z,34.88
2022-07-30T16:58:30.910Z,36.43
2022-07-30T17:00:58.399Z,35.94
2022-07-30T17:03:25.702Z,36.05
2022-07-30T17:05:53.446Z,35.79
2022-07-30T17:08:24.981Z,37.44
2022-07-30T17:10:53.583Z,37.82
2022-07-30T17:13:21.110Z,38.44
2022-07-30T17:15:48.655Z,37.73
2022-07-30T17:18:16.442Z,36.13
2022-07-30T17:20:44.371Z,39.12
2022-07-30T17:23:11.681Z,39.14
2022-07-30T17:25:38.557Z,39.84
2022-07-30T17:28:05.558Z,40.37
2022-07-30T17:30:32.718Z,39.07
2022-07-30T17:32:59.560Z,40.44
2022-07-30T17:35:26.550Z,39.75
2022-07-30T17:37:53.795Z,40.75
2022-07-30T17:40:29.079Z,40.88
2022-07-30T17:43:03.531Z,40.95
2022-07-30T17:45:32.378Z,40.62
2022-07-30T17:48:01.338Z,40.81
2022-07-30T17:50:28.650Z,40.57
2022-07-30T17:52:55.523Z,42.05
2022-07-30T17:55:22.349Z,41.86
2022-07-30T17:57:49.236Z,42.30
2022-07-30T18:00:16.785Z,42.63
2022-07-30T18:02:43.717Z,44.13
2022-07-30T18:05:10.983Z,43.40
2022-07-30T18:07:37.811Z,42.82
2022-07-30T18:10:05.318Z,44.41
2022-07-30T18:12:32.364Z,45.24
2022-07-30T18:14:59.337Z,44.25
2022-07-30T18:17:26.601Z,45.07
2022-07-30T18:19:53.793Z,45.36
2022-07-30T18:22:28.222Z,45.58
2022-07-30T18:24:57.483Z,44.61
2022-07-30T18:27:24.368Z,45.61
2022-07-30T18:29:51.241Z,45.70
2022-07-30T18:32:18.155Z,45.24
2022-07-30T18:34:45.051Z,45.47
2022-07-30T18:37:11.880Z,46.82
2022-07-30T18:39:38.700Z,47.13
2022-07-30T18:42:06.444Z,46.77
2022-07-30T18:44:33.789Z,47.57
2022-07-30T18:47:01.136Z,48.30
2022-07-30T18:49:37.029Z,48.30
2022-07-30T18:52:07.034Z,49.43
2022-07-30T18:54:35.043Z,49.56
2022-07-30T18:57:02.016Z,50.19
2022-07-30T18:59:29.741Z,51.09
2022-07-30T19:01:56.586Z,51.24
2022-07-30T19:04:23.558Z,52.54
2022-07-30T19:06:50.463Z,52.26
2022-07-30T19:09:18.216Z,51.97
2022-07-30T19:11:48.278Z,52.10
2022-07-30T19:14:15.995Z,52.47
2022-07-30T19:16:44.165Z,51.97
2022-07-30T19:19:14.690Z,53.07
2022-07-30T19:21:41.954Z,52.83
2022-07-30T19:24:10.056Z,53.79
2022-07-30T19:26:39.263Z,54.75
2022-07-30T19:29:07.881Z,55.13
2022-07-30T19:31:35.397Z,54.66
2022-07-30T19:34:02.303Z,54.54
2022-07-30T19:36:30.183Z,54.27
2022-07-30T19:39:03.244Z,55.98
2022-07-30T19:41:40.288Z,56.88
2022-07-30T19:44:09.333Z,56.69
2022-07-30T19:46:36.982Z,56.65
2022-07-30T19:49:06.757Z,56.77
2022-07-30T19:52:10.708Z,56.28
2022-07-30T19:54:20.781Z,55.53
2022-07-30T19:56:48.672Z,53.55
2022-07-30T19:59:15.721Z,52.08
2022-07-30T20:01:45.337Z,52.21
2022-07-30T20:04:23.627Z,52.99
2022-07-30T20:06:52.305Z,53.67
2022-07-30T20:09:19.163Z,54.35
2022-07-30T20:11:46.137Z,55.79
2022-07-30T20:14:16.256Z,56.11
2022-07-30T20:16:44.115Z,56.62
2022-07-30T20:19:15.581Z,56.77
2022-07-30T20:21:56.906Z,56.75
2022-07-30T20:24:24.889Z,57.28
2022-07-30T20:26:52.461Z,56.67
2022-07-30T20:29:20.831Z,56.84
2022-07-30T20:31:49.667Z,56.34
2022-07-30T20:34:20.610Z,55.21
2022-07-30T20:36:51.106Z,55.20
2022-07-30T20:39:19.887Z,54.77
2022-07-30T20:41:47.014Z,54.65
2022-07-30T20:44:23.364Z,54.80
2022-07-30T20:46:52.633Z,54.69
2022-07-30T20:49:24.206Z,55.55
2022-07-30T20:52:01.344Z,55.89
2022-07-30T20:54:30.166Z,56.04
2022-07-30T20:56:57.919Z,56.33
2022-07-30T20:59:26.947Z,56.94
2022-07-30T21:01:55.708Z,57.27
2022-07-30T21:04:23.998Z,57.44
2022-07-30T21:06:53.301Z,57.72
2022-07-30T21:09:20.576Z,57.04
2022-07-30T21:11:50.508Z,57.00
2022-07-30T21:14:20.081Z,56.82
2022-07-30T21:16:47.646Z,57.10
2022-07-30T21:19:16.976Z,58.38
2022-07-30T21:21:48.249Z,58.52
2022-07-30T21:24:18.928Z,59.43
2022-07-30T21:26:49.345Z,58.71
2022-07-30T21:29:18.288Z,59.15
2022-07-30T21:31:59.093Z,59.09
2022-07-30T21:34:35.182Z,59.31
2022-07-30T21:37:07.538Z,59.60
2022-07-30T21:39:39.860Z,59.49
2022-07-30T21:42:10.706Z,59.99
2022-07-30T21:44:38.460Z,59.97
2022-07-30T21:47:10.114Z,59.46
2022-07-30T21:49:38.562Z,59.79
2022-07-30T21:52:08.359Z,60.50
2022-07-30T21:54:45.127Z,60.39
2022-07-30T21:57:12.710Z,60.21
2022-07-30T21:59:40.651Z,61.24
2022-07-30T22:02:15.859Z,62.41
2022-07-30T22:04:47.626Z,62.62
2022-07-30T22:07:17.442Z,62.70
2022-07-30T22:09:44.270Z,63.07
2022-07-30T22:12:13.010Z,63.12
2022-07-30T22:14:47.004Z,64.08
2022-07-30T22:17:23.832Z,64.02
2022-07-30T22:20:04.708Z,63.74
2022-07-30T22:22:37.562Z,64.24
2022-07-30T22:25:06.771Z,65.02
2022-07-30T22:27:39.982Z,65.08
2022-07-30T22:30:24.177Z,66.22
2022-07-30T22:33:09.001Z,66.07
2022-07-30T22:35:36.665Z,66.01
2022-07-30T22:38:06.828Z,66.12
2022-07-30T22:40:36.044Z,65.63
2022-07-30T22:43:12.449Z,65.99
2022-07-30T22:45:47.313Z,66.36
2022-07-30T22:48:17.122Z,66.04
2022-07-30T22:50:44.042Z,66.08
2022-07-30T22:54:02.816Z,65.90
2022-07-30T22:55:58.735Z,65.49
2022-07-30T23:01:13.793Z,64.90
2022-07-30T23:03:41.397Z,65.07
2022-07-30T23:06:13.945Z,64.87
2022-07-30T23:08:41.519Z,65.46
2022-07-30T23:11:09.195Z,65.42
2022-07-30T23:12:30.812Z,65.43
2022-07-30T23:13:38.525Z,65.93
2022-07-30T23:16:06.692Z,66.42
2022-07-30T23:18:35.146Z,66.60
2022-07-30T23:21:02.779Z,67.11
2022-07-30T23:23:34.108Z,66.99
2022-07-30T23:26:04.610Z,67.31
2022-07-30T23:28:31.579Z,67.11
2022-07-30T23:30:59.084Z,67.62
2022-07-30T23:33:26.093Z,67.72
2022-07-30T23:35:52.949Z,67.05
2022-07-30T23:38:19.821Z,67.43
2022-07-30T23:40:47.283Z,66.93
2022-07-30T23:43:14.341Z,67.75
2022-07-30T23:45:41.681Z,67.45
2022-07-30T23:48:08.540Z,67.23
2022-07-30T23:50:35.609Z,67.83
2022-07-30T23:53:04.946Z,67.54
2022-07-30T23:55:32.507Z,68.00
2022-07-30T23:58:00.153Z,68.08
